EW8080 Weather Reports


Display with metric or nautical units.
time (UTC)temp
F
wind
direction
speed
MPH
gust
MPH
rain 1hr
in
rain 24hr
in
rain mn
in
humidity
%
barometer
mb
20191119222850 45 338 3.0 9.0 0.00 0.20 0.12 91 1009.1
20191119222150 45 349 1.0 6.0 0.00 0.20 0.12 91 1009.1
20191119221450 46 344 0.0 6.0 0.00 0.20 0.12 90 1009.1
20191119220750 46 0 0.0 0.0 0.00 0.20 0.12 90 1009.1
20191119220050 46 0 0.0 5.0 0.00 0.20 0.12 90 1009.1
20191119215350 47 298 0.0 5.0 0.00 0.20 0.12 90 1008.1
20191119214650 49 297 0.0 4.0 0.00 0.20 0.12 93 1008.1
20191119213950 48 0 0.0 0.0 0.00 0.20 0.12 96 1008.1
20191119213250 46 0 0.0 0.0 0.00 0.20 0.12 90 1008.1
20191119212551 46 0 0.0 0.0 0.00 0.20 0.12 90 1008.1
20191119211850 46 0 0.0 0.0 0.00 0.20 0.12 90 1008.1
20191119211150 46 0 0.0 0.0 0.00 0.20 0.12 89 1008.1
20191119210450 47 0 0.0 0.0 0.00 0.20 0.12 89 1008.1
20191119205750 47 298 1.0 6.0 0.00 0.20 0.12 90 1008.1
20191119205050 47 319 2.0 7.0 0.00 0.20 0.12 91 1008.1
20191119204350 47 328 1.0 7.0 0.00 0.20 0.12 88 1008.1
20191119203650 47 0 0.0 0.0 0.00 0.20 0.12 86 1007.1
20191119202950 47 316 2.0 8.0 0.00 0.20 0.12 85 1007.1
20191119202250 47 281 5.0 10.0 0.00 0.20 0.12 86 1007.1
20191119201550 47 279 5.0 8.0 0.00 0.20 0.12 87 1007.1
20191119200850 47 270 4.0 9.0 0.00 0.20 0.12 87 1007.1
20191119200150 47 271 3.0 9.0 0.00 0.20 0.12 87 1007.1
20191119195450 48 263 3.0 10.0 0.00 0.20 0.12 89 1007.1
20191119194750 48 250 3.0 9.0 0.00 0.20 0.12 89 1007.1
20191119194050 48 251 2.0 8.0 0.00 0.20 0.12 90 1007.1
20191119193350 48 271 2.0 10.0 0.00 0.20 0.12 90 1007.1
20191119192650 48 265 3.0 10.0 0.00 0.20 0.12 91 1007.1
20191119191950 48 268 0.0 6.0 0.00 0.20 0.12 92 1007.1
20191119191250 47 279 1.0 6.0 0.00 0.20 0.12 93 1007.1
20191119190550 47 259 3.0 8.0 0.00 0.20 0.12 94 1006.1
20191119185850 47 282 3.0 8.0 0.00 0.20 0.12 96 1006.1
20191119185150 47 0 0.0 5.0 0.00 0.20 0.12 96 1006.1
20191119184450 47 280 2.0 6.0 0.00 0.20 0.12 94 1006.1
20191119183750 47 283 1.0 6.0 0.00 0.20 0.12 93 1006.1
20191119183050 47 0 0.0 5.0 0.00 0.20 0.12 91 1006.1
20191119182350 48 0 0.0 5.0 0.00 0.20 0.12 92 1006.1
20191119181650 47 0 0.0 5.0 0.00 0.20 0.12 95 1006.1
20191119180950 47 286 1.0 6.0 0.00 0.20 0.12 96 1007.1
20191119180250 47 286 1.0 6.0 0.00 0.24 0.12 96 1007.1
20191119175550 47 277 1.0 6.0 0.00 0.24 0.12 97 1007.1
20191119174850 47 279 2.0 6.0 0.00 0.24 0.12 99 1007.1
20191119174150 47 273 2.0 6.0 0.00 0.24 0.12 100 1007.1
20191119173450 46 265 1.0 6.0 0.00 0.24 0.12 100 1007.1
20191119172750 46 0 0.0 5.0 0.00 0.24 0.12 100 1007.1
20191119172050 46 0 0.0 5.0 0.00 0.24 0.12 100 1007.1
20191119171350 46 0 0.0 6.0 0.00 0.24 0.12 100 1007.1
20191119170650 46 0 0.0 4.0 0.00 0.24 0.12 100 1007.1
20191119165950 46 0 0.0 5.0 0.00 0.24 0.12 100 1007.1
20191119165250 46 0 0.0 4.0 0.00 0.24 0.12 100 1007.1
20191119164550 45 0 0.0 4.0 0.00 0.24 0.12 100 1007.1
20191119163850 45 0 0.0 4.0 0.00 0.24 0.12 100 1007.1
20191119163150 45 0 0.0 3.0 0.00 0.28 0.12 100 1007.1
20191119162450 45 0 0.0 5.0 0.00 0.28 0.12 100 1007.1
20191119161750 45 0 0.0 5.0 0.00 0.28 0.12 100 1007.1
20191119161050 45 0 0.0 0.0 0.00 0.28 0.12 99 1007.1
20191119160350 45 0 0.0 0.0 0.00 0.28 0.12 100 1007.1
20191119155650 45 0 0.0 6.0 0.00 0.28 0.12 100 1007.1
20191119154950 45 0 0.0 6.0 0.00 0.28 0.12 100 1007.1
20191119154250 45 0 0.0 5.0 0.00 0.28 0.12 100 1007.1
20191119153550 45 167 1.0 8.0 0.00 0.28 0.12 100 1007.1
20191119152850 45 169 5.0 9.0 0.00 0.31 0.12 100 1007.1
20191119152150 45 173 3.0 8.0 0.00 0.31 0.12 100 1007.1
20191119151450 45 0 0.0 4.0 0.00 0.31 0.12 100 1007.1
20191119150750 45 0 0.0 4.0 0.00 0.31 0.12 100 1007.1
20191119150050 45 0 0.0 0.0 0.00 0.31 0.12 100 1007.1
20191119145350 44 0 0.0 6.0 0.00 0.31 0.12 100 1006.1
20191119144650 45 0 0.0 6.0 0.00 0.31 0.12 100 1006.1
20191119143950 44 0 0.0 4.0 0.00 0.31 0.12 100 1007.1
20191119143250 44 0 0.0 4.0 0.00 0.31 0.12 100 1007.1
20191119142550 44 0 0.0 0.0 0.00 0.31 0.12 100 1007.1
20191119141850 44 0 0.0 0.0 0.00 0.31 0.12 100 1007.1
20191119141150 43 0 0.0 0.0 0.00 0.31 0.12 100 1007.1
20191119140450 43 0 0.0 0.0 0.00 0.31 0.12 100 1007.1
20191119135750 43 0 0.0 0.0 0.00 0.35 0.12 100 1007.1
20191119135050 42 0 0.0 0.0 0.00 0.35 0.12 100 1007.1
20191119134350 42 0 0.0 0.0 0.00 0.35 0.12 100 1007.1
20191119133650 42 0 0.0 0.0 0.00 0.35 0.12 100 1007.1
20191119132950 42 0 0.0 0.0 0.00 0.35 0.12 100 1007.1
20191119132250 41 0 0.0 0.0 0.00 0.35 0.12 100 1007.1
20191119131550 41 0 0.0 0.0 0.00 0.35 0.12 100 1007.1
20191119130850 41 0 0.0 0.0 0.00 0.35 0.12 100 1006.1
20191119130150 41 0 0.0 0.0 0.00 0.39 0.12 100 1006.1
20191119125450 41 0 0.0 0.0 0.00 0.39 0.12 100 1006.1
20191119124750 40 0 0.0 0.0 0.00 0.39 0.12 100 1006.1
20191119124050 40 0 0.0 0.0 0.00 0.39 0.12 100 1007.1
20191119123350 40 0 0.0 0.0 0.04 0.39 0.12 100 1007.1
20191119122650 40 0 0.0 0.0 0.04 0.39 0.12 100 1007.1
20191119121950 40 0 0.0 0.0 0.04 0.39 0.12 100 1007.1
20191119121250 40 0 0.0 0.0 0.04 0.39 0.12 100 1007.1
20191119120550 40 0 0.0 0.0 0.08 0.39 0.12 100 1007.1
20191119115850 40 0 0.0 0.0 0.08 0.39 0.12 100 1007.1
20191119115150 40 0 0.0 0.0 0.08 0.39 0.12 100 1006.1
20191119114450 40 0 0.0 0.0 0.08 0.39 0.12 100 1006.1
20191119113750 40 0 0.0 0.0 0.04 0.39 0.12 100 1006.1
20191119113050 40 0 0.0 0.0 0.04 0.39 0.08 100 1006.1
20191119112350 40 0 0.0 0.0 0.04 0.39 0.08 100 1006.1
20191119111650 39 0 0.0 0.0 0.04 0.39 0.08 100 1006.1
20191119110950 39 0 0.0 0.0 0.04 0.39 0.08 100 1006.1
20191119110250 39 0 0.0 6.0 0.00 0.35 0.04 100 1006.1
20191119105550 40 0 0.0 6.0 0.04 0.35 0.04 100 1006.1
20191119104850 40 0 0.0 0.0 0.04 0.35 0.04 100 1006.1
20191119104150 40 0 0.0 6.0 0.04 0.35 0.04 100 1006.1
20191119103450 40 0 0.0 0.0 0.04 0.35 0.04 100 1006.1
20191119102750 39 0 0.0 0.0 0.04 0.35 0.04 100 1005.1
20191119102050 39 271 0.0 5.0 0.04 0.35 0.04 100 1005.1
20191119101350 39 271 0.0 6.0 0.04 0.35 0.04 100 1005.1
20191119100650 39 0 0.0 5.0 0.04 0.35 0.04 100 1005.1
20191119095950 39 0 0.0 6.0 0.04 0.35 0.04 100 1005.1
20191119095250 39 0 0.0 6.0 0.00 0.31 0.00 100 1005.1
20191119094550 39 0 0.0 6.0 0.00 0.31 0.00 100 1005.1
20191119093850 39 0 0.0 6.0 0.00 0.31 0.00 100 1005.1
20191119093150 39 306 0.0 6.0 0.00 0.31 0.00 100 1005.1
20191119092450 39 297 0.0 6.0 0.00 0.31 0.00 100 1005.1
20191119091753 39 0 0.0 7.0 0.00 0.31 0.00 100 1005.1
20191119091050 39 0 0.0 7.0 0.00 0.31 0.00 100 1005.1
20191119090350 39 324 1.0 6.0 0.00 0.31 0.00 100 1005.1
20191119085650 39 304 1.0 9.0 0.00 0.31 0.00 100 1005.1
20191119084950 39 285 0.0 9.0 0.00 0.31 0.00 100 1005.1
20191119084250 39 307 1.0 8.0 0.00 0.31 0.00 100 1005.1
20191119083550 39 304 1.0 8.0 0.00 0.31 0.00 100 1005.1
20191119082850 39 300 0.0 6.0 0.00 0.31 0.00 100 1005.1
20191119082150 39 299 0.0 9.0 0.00 0.31 0.00 100 1004.1
20191119081450 39 298 0.0 7.0 0.00 0.31 0.00 100 1004.1
20191119080750 39 290 2.0 9.0 0.00 0.31 0.00 100 1004.1
20191119080052 39 301 2.0 10.0 0.00 0.31 0.00 100 1004.1
20191119075350 39 287 1.0 6.0 0.00 0.31 0.00 100 1004.1
20191119074650 39 299 2.0 11.0 0.00 0.31 0.00 100 1004.1
20191119073950 39 299 2.0 10.0 0.00 0.31 0.00 100 1004.1
20191119073250 39 295 2.0 8.0 0.00 0.31 0.00 100 1004.1
20191119072550 39 289 3.0 9.0 0.00 0.31 0.00 100 1004.1
20191119071850 39 290 2.0 9.0 0.00 0.31 0.00 100 1004.1
20191119071150 39 303 2.0 11.0 0.00 0.31 0.00 100 1004.1
20191119070450 39 296 2.0 8.0 0.00 0.31 0.00 100 1004.1
20191119065750 39 289 1.0 9.0 0.00 0.31 0.00 100 1004.1
20191119065050 39 294 4.0 9.0 0.00 0.31 0.00 100 1004.1
20191119064351 39 312 2.0 9.0 0.00 0.31 0.00 100 1004.1
20191119063650 40 288 4.0 10.0 0.00 0.31 0.00 100 1004.1
20191119062950 40 285 2.0 10.0 0.00 0.31 0.00 100 1004.1
20191119062250 40 294 1.0 10.0 0.00 0.31 0.00 100 1004.1
20191119061550 40 300 1.0 10.0 0.00 0.31 0.00 100 1004.1
20191119060850 40 294 1.0 10.0 0.00 0.31 0.00 100 1003.1
20191119060150 40 302 1.0 10.0 0.00 0.31 0.00 100 1003.1
20191119055450 40 327 3.0 8.0 0.00 0.31 0.00 100 1003.1
20191119054750 40 343 4.0 9.0 0.00 0.31 0.00 100 1003.1
20191119054050 40 10 5.0 10.0 0.00 0.31 0.00 100 1004.1
20191119053350 40 346 3.0 10.0 0.00 0.31 0.00 100 1004.1
20191119052650 41 329 3.0 10.0 0.00 0.31 0.00 100 1004.1
20191119051950 41 337 3.0 13.0 0.00 0.31 0.00 100 1004.1
20191119051250 41 320 2.0 13.0 0.00 0.31 0.00 100 1004.1
20191119050550 41 332 3.0 8.0 0.00 0.31 0.00 100 1003.1
20191119045850 41 338 5.0 10.0 0.00 0.31 0.31 100 1003.1
20191119045150 41 332 6.0 9.0 0.00 0.31 0.31 100 1003.1
20191119044450 41 343 5.0 10.0 0.00 0.31 0.31 100 1003.1
20191119043750 41 342 6.0 11.0 0.00 0.31 0.31 100 1003.1
20191119043050 41 348 5.0 11.0 0.00 0.31 0.31 100 1003.1
20191119042350 40 359 3.0 11.0 0.00 0.31 0.31 100 1003.1
20191119041650 40 359 6.0 14.0 0.00 0.31 0.31 100 1003.1
20191119040950 40 1 6.0 16.0 0.00 0.31 0.31 100 1002.1
20191119040250 40 4 7.0 13.0 0.00 0.31 0.31 100 1002.1
20191119035550 40 4 8.0 15.0 0.00 0.31 0.31 100 1002.1
20191119034850 40 5 8.0 15.0 0.00 0.31 0.31 100 1002.1
20191119034150 40 359 8.0 16.0 0.00 0.31 0.31 100 1002.1
20191119033450 40 9 8.0 16.0 0.00 0.31 0.31 100 1002.1
20191119032750 40 3 8.0 16.0 0.00 0.31 0.31 100 1002.1
20191119032050 41 1 7.0 15.0 0.00 0.31 0.31 100 1002.1
20191119031350 41 5 10.0 16.0 0.00 0.31 0.31 100 1002.1
20191119030651 40 3 10.0 16.0 0.00 0.31 0.31 100 1003.1
20191119025950 40 3 8.0 16.0 0.00 0.31 0.31 100 1003.1
20191119025250 40 1 8.0 13.0 0.00 0.31 0.31 100 1003.1
20191119024550 40 355 9.0 14.0 0.00 0.31 0.31 100 1003.1
20191119023850 40 352 10.0 17.0 0.04 0.31 0.31 100 1003.1
20191119023150 41 1 10.0 17.0 0.04 0.31 0.31 100 1003.1
20191119022450 40 2 10.0 23.0 0.04 0.31 0.31 100 1003.1
20191119021750 40 358 10.0 23.0 0.04 0.31 0.31 100 1003.1
20191119021050 41 357 8.0 13.0 0.04 0.31 0.31 100 1002.1
20191119020350 41 357 8.0 13.0 0.04 0.31 0.31 100 1002.1
20191119015650 41 4 9.0 16.0 0.04 0.31 0.31 100 1003.1
20191119014950 41 5 8.0 16.0 0.04 0.31 0.31 100 1003.1
20191119014250 41 9 9.0 16.0 0.00 0.28 0.28 100 1003.1
20191119013550 41 2 8.0 16.0 0.00 0.28 0.28 100 1003.1
20191119012850 41 357 8.0 16.0 0.00 0.28 0.28 100 1003.1
20191119012150 41 357 8.0 16.0 0.00 0.28 0.28 100 1003.1
20191119011450 41 1 9.0 13.0 0.00 0.28 0.28 100 1003.1
20191119010750 41 354 9.0 17.0 0.00 0.28 0.28 100 1003.1
20191119010050 41 356 11.0 17.0 0.00 0.28 0.28 100 1003.1
20191119005350 41 355 10.0 19.0 0.00 0.28 0.28 100 1002.1
20191119004650 41 356 12.0 17.0 0.00 0.28 0.28 100 1002.1
20191119003950 41 357 12.0 19.0 0.00 0.28 0.28 100 1002.1
20191119003250 41 3 11.0 17.0 0.00 0.28 0.28 100 1002.1
20191119002550 41 3 11.0 19.0 0.00 0.28 0.28 100 1002.1
20191119001850 41 355 11.0 16.0 0.00 0.28 0.28 100 1002.1
20191119001150 41 359 11.0 19.0 0.00 0.28 0.28 100 1002.1
20191119000450 41 6 11.0 19.0 0.00 0.28 0.28 100 1002.1
20191118235750 41 6 12.0 17.0 0.00 0.28 0.28 100 1002.1
20191118235050 41 5 11.0 20.0 0.00 0.28 0.28 100 1002.1
20191118234350 41 2 10.0 19.0 0.00 0.28 0.28 100 1002.1
20191118233650 41 4 11.0 20.0 0.00 0.28 0.28 100 1003.1
20191118232950 41 3 12.0 20.0 0.04 0.28 0.28 100 1003.1
20191118232250 41 5 11.0 19.0 0.04 0.28 0.28 100 1003.1
20191118231550 41 5 12.0 19.0 0.04 0.28 0.28 100 1003.1
20191118230851 41 10 11.0 21.0 0.04 0.28 0.28 100 1002.1
20191118230150 41 13 11.0 23.0 0.04 0.28 0.28 100 1002.1
20191118225450 41 15 11.0 20.0 0.04 0.28 0.28 100 1002.1
20191118224750 41 13 12.0 21.0 0.04 0.28 0.28 100 1002.1
20191118224050 41 11 10.0 20.0 0.04 0.28 0.28 100 1002.1
20191118223350 41 8 11.0 25.0 0.04 0.28 0.28 100 1002.1